Aviation Digital Data Service (ADDS)

Output produced by METARs form (1212 UTC 24 March 2017)
found at http://www.aviationweather.gov/adds/metars/
 
METAR text: KCOU 241154Z 16011KT 10SM CLR 17/09 A2992 RMK AO2 SLP125 T01720089 10194 20161 51021
Conditions at: KCOU (COLUMBIA , MO, US) observed 1154 UTC 24 March 2017
Temperature: 17.2°C (63°F)
Dewpoint: 8.9°C (48°F) [RH = 58%]
Pressure (altimeter): 29.92 inches Hg (1013.3 mb)
[Sea-level pressure: 1012.5 mb]
Winds: from the SSE (160 degrees) at 13 MPH (11 knots; 5.7 m/s)
Visibility: 10 or more miles (16+ km)
Ceiling: at least 12,000 feet AGL
Clouds: sky clear below 12,000 feet AGL
Weather: no significant weather observed at this time